Time;durP1;ratioP1;P1;durP2;ratioP2;P2;SDS_P1;SDS_P2;PMS_P1;PMS_P2;Temp;Humidity;BMP_temperature;BMP_pressure;BME280_temperature;BME280_humidity;BME280_pressure;Samples;Min_cycle;Max_cycle;Signal;HPM_P1;HPM_P2
2022/07/20 00:01:38;;;;;;;;;;;;;;;27.03;31.10;101109.72;5055557;28;19920;-61
2022/07/20 00:04:04;;;;;;;;;;;;;;;26.97;31.23;101115.13;5055980;28;19960;-61
2022/07/20 00:06:29;;;;;;;;;;;;;;;26.92;31.22;101109.66;5058412;28;19928;-61
2022/07/20 00:11:38;;;;;;;;;;;;;;;26.85;31.59;101109.06;5070064;28;19927;-61
2022/07/20 00:14:04;;;;;;;;;;;;;;;26.82;31.63;101109.59;5063097;28;19924;-61
2022/07/20 00:16:31;;;;;;;;;;;;;;;26.79;31.44;101104.69;5062166;28;19971;-60
2022/07/20 00:18:57;;;;;;;;;;;;;;;26.76;31.66;101105.22;5056331;28;20063;-60
2022/07/20 00:21:22;;;;;;;;;;;;;;;26.69;32.08;101100.81;5067096;28;20396;-61
2022/07/20 00:23:47;;;;;;;;;;;;;;;26.64;31.82;101098.06;5062991;28;20472;-61
2022/07/20 00:26:13;;;;;;;;;;;;;;;26.62;31.76;101097.53;5067541;28;19920;-61
2022/07/20 00:28:38;;;;;;;;;;;;;;;26.57;31.96;101101.06;5066652;28;20287;-61
2022/07/20 00:31:05;;;;;;;;;;;;;;;26.55;31.83;101103.19;5058302;28;21282;-61
2022/07/20 00:33:30;;;;;;;;;;;;;;;26.53;32.36;101096.38;5062500;28;19927;-61
2022/07/20 00:35:56;;;;;;;;;;;;;;;26.49;32.08;101111.59;5071665;28;19926;-61
2022/07/20 00:38:21;;;;;;;;;;;;;;;26.66;32.45;101136.72;5066383;28;19924;-61
2022/07/20 00:40:46;;;;;;;;;;;;;;;26.52;32.50;101181.75;5059869;28;19920;-61
2022/07/20 00:43:11;;;;;;;;;;;;;;;26.07;32.94;101105.84;5064613;28;20008;-61
2022/07/20 00:45:37;;;;;;;;;;;;;;;26.07;32.67;101116.72;5060662;28;19920;-61
2022/07/20 00:48:02;;;;;;;;;;;;;;;26.08;32.53;101115.63;5060711;28;19921;-61
2022/07/20 00:50:27;;;;;;;;;;;;;;;26.09;32.93;101122.72;5073540;28;19927;-61
2022/07/20 00:52:53;;;;;;;;;;;;;;;26.12;32.73;101141.22;5068355;28;19979;-61
2022/07/20 00:55:18;;;;;;;;;;;;;;;26.05;32.59;101146.06;5060423;28;19928;-61
2022/07/20 00:57:43;;;;;;;;;;;;;;;26.02;32.60;101135.69;5067648;28;19928;-61
2022/07/20 01:00:09;;;;;;;;;;;;;;;25.99;32.64;101138.94;5067918;28;19924;-61
2022/07/20 01:02:35;;;;;;;;;;;;;;;26.04;32.42;101166.13;5059458;28;20333;-61
2022/07/20 01:05:00;;;;;;;;;;;;;;;25.99;32.49;101126.16;5059556;28;19920;-61
2022/07/20 01:07:25;;;;;;;;;;;;;;;25.99;32.93;101136.22;5067469;28;20290;-61
2022/07/20 01:09:51;;;;;;;;;;;;;;;25.98;32.83;101129.13;5060499;28;20414;-61
2022/07/20 01:12:16;;;;;;;;;;;;;;;26.00;32.39;101132.44;5058342;28;19931;-61
2022/07/20 01:14:41;;;;;;;;;;;;;;;25.92;32.72;101137.25;5061898;28;20007;-60
2022/07/20 01:17:07;;;;;;;;;;;;;;;25.89;32.89;101132.34;5057172;28;20456;-61
2022/07/20 01:19:32;;;;;;;;;;;;;;;25.87;32.86;101129.06;5060414;28;19920;-61
2022/07/20 01:21:57;;;;;;;;;;;;;;;25.82;33.10;101130.91;5059326;28;19921;-61
2022/07/20 01:24:22;;;;;;;;;;;;;;;25.77;33.19;101123.53;5061340;28;20319;-61
2022/07/20 01:26:47;;;;;;;;;;;;;;;25.74;33.15;101124.03;5064221;28;19921;-61
2022/07/20 01:29:13;;;;;;;;;;;;;;;25.71;33.18;101124.56;5055411;28;20018;-61
2022/07/20 01:31:39;;;;;;;;;;;;;;;25.68;33.65;101125.06;5060241;28;19920;-61
2022/07/20 01:34:04;;;;;;;;;;;;;;;25.64;33.64;101117.44;5055478;28;19944;-61
2022/07/20 01:36:29;;;;;;;;;;;;;;;25.60;33.45;101121.72;5058789;28;19921;-61
2022/07/20 01:38:55;;;;;;;;;;;;;;;25.59;33.55;101114.66;5063635;28;19944;-61
2022/07/20 01:41:20;;;;;;;;;;;;;;;25.56;33.78;101117.88;5071635;28;19921;-61
2022/07/20 01:43:45;;;;;;;;;;;;;;;25.54;33.46;101121.97;5059130;28;19932;-61
2022/07/20 01:46:11;;;;;;;;;;;;;;;25.50;33.74;101116.16;5055317;28;19927;-61
2022/07/20 01:48:36;;;;;;;;;;;;;;;25.44;33.71;101119.91;5059023;28;19967;-61
2022/07/20 01:51:02;;;;;;;;;;;;;;;25.39;33.73;101126.94;5058693;28;19946;-60
2022/07/20 01:53:28;;;;;;;;;;;;;;;25.36;33.83;101129.34;5057741;28;19952;-61
2022/07/20 01:55:54;;;;;;;;;;;;;;;25.34;34.00;101132.31;5069268;28;19920;-61
2022/07/20 01:58:19;;;;;;;;;;;;;;;25.32;33.96;101125.50;5059479;28;19920;-61
2022/07/20 02:00:45;;;;;;;;;;;;;;;25.27;34.20;101142.53;5061786;28;19920;-61
2022/07/20 02:03:10;;;;;;;;;;;;;;;25.18;34.34;101150.31;5061489;28;19939;-61
2022/07/20 02:05:35;;;;;;;;;;;;;;;25.09;34.62;101165.38;5065284;28;20280;-61
2022/07/20 02:08:01;;;;;;;;;;;;;;;25.05;34.74;101173.19;5062501;28;20386;-61
2022/07/20 02:10:26;;;;;;;;;;;;;;;25.09;34.38;101177.06;5058525;28;19920;-61
2022/07/20 02:12:51;;;;;;;;;;;;;;;25.07;34.40;101179.19;5065738;28;19994;-61
2022/07/20 02:18:07;;;;;;;;;;;;;;;25.06;34.90;101180.25;5061633;28;19966;-61
2022/07/20 02:20:33;;;;;;;;;;;;;;;25.07;36.85;101179.19;5065989;28;20267;-61
2022/07/20 02:22:58;;;;;;;;;;;;;;;24.86;36.78;101164.53;5055227;28;19939;-60
2022/07/20 02:25:23;;;;;;;;;;;;;;;24.89;37.55;101179.47;5068431;28;19924;-60
2022/07/20 02:27:48;;;;;;;;;;;;;;;24.77;38.02;101180.38;5055794;28;19974;-60
2022/07/20 02:30:14;;;;;;;;;;;;;;;24.69;38.56;101180.81;5069243;28;19962;-61
2022/07/20 02:32:39;;;;;;;;;;;;;;;24.58;43.49;101172.50;5064189;28;20260;-61
2022/07/20 02:35:04;;;;;;;;;;;;;;;24.44;40.66;101173.94;5062193;28;19928;-60
2022/07/20 02:37:29;;;;;;;;;;;;;;;24.38;39.86;101170.28;5061884;28;20003;-60
2022/07/20 02:39:55;;;;;;;;;;;;;;;24.33;39.98;101180.25;5059365;28;20236;-60
2022/07/20 02:42:20;;;;;;;;;;;;;;;24.25;40.31;101182.31;5054081;28;19975;-60
2022/07/20 02:44:45;;;;;;;;;;;;;;;24.19;41.28;101188.69;5056856;28;19951;-60
2022/07/20 02:47:10;;;;;;;;;;;;;;;24.10;41.00;101190.16;5065865;28;20395;-60
2022/07/20 02:49:35;;;;;;;;;;;;;;;24.11;41.70;101187.22;5059217;28;19971;-61
2022/07/20 02:52:00;;;;;;;;;;;;;;;24.00;41.31;101180.78;5060773;28;19952;-60
2022/07/20 02:54:25;;;;;;;;;;;;;;;23.98;41.08;101182.88;5056887;28;19967;-60
2022/07/20 02:56:51;;;;;;;;;;;;;;;23.97;41.79;101173.13;5065397;28;19916;-61
2022/07/20 02:59:16;;;;;;;;;;;;;;;23.89;42.30;101184.34;5052582;28;19944;-60
2022/07/20 03:01:41;;;;;;;;;;;;;;;23.84;42.57;101181.56;5055419;28;19970;-60
2022/07/20 03:04:06;;;;;;;;;;;;;;;23.77;42.91;101196.06;5063357;28;19920;-60
2022/07/20 03:06:31;;;;;;;;;;;;;;;23.74;43.51;101203.84;5062195;28;19948;-60
2022/07/20 03:08:57;;;;;;;;;;;;;;;23.71;43.33;101201.59;5064181;28;19923;-61
2022/07/20 03:11:22;;;;;;;;;;;;;;;23.71;44.03;101193.47;5052980;28;19964;-61
2022/07/20 03:13:47;;;;;;;;;;;;;;;23.70;43.86;101191.84;5060973;28;19932;-60
2022/07/20 03:16:12;;;;;;;;;;;;;;;23.65;45.06;101181.75;5061594;28;19928;-61
2022/07/20 03:18:37;;;;;;;;;;;;;;;23.55;45.66;101184.25;5067281;28;19920;-60
2022/07/20 03:21:03;;;;;;;;;;;;;;;23.61;46.83;101184.13;5052624;28;19924;-60
2022/07/20 03:23:28;;;;;;;;;;;;;;;23.49;45.60;101194.16;5058645;28;19925;-60
2022/07/20 03:25:53;;;;;;;;;;;;;;;23.46;45.93;101198.16;5065824;28;19924;-60
2022/07/20 03:28:19;;;;;;;;;;;;;;;23.48;47.53;101206.88;5064018;28;20390;-60
2022/07/20 03:30:44;;;;;;;;;;;;;;;23.40;46.64;101215.38;5053272;28;20019;-60
2022/07/20 03:33:09;;;;;;;;;;;;;;;23.40;47.59;101220.78;5052040;28;19921;-60
2022/07/20 03:35:34;;;;;;;;;;;;;;;23.34;47.55;101227.16;5061576;28;19920;-60
2022/07/20 03:38:00;;;;;;;;;;;;;;;23.31;47.91;101225.72;5064855;28;19956;-60
2022/07/20 03:40:25;;;;;;;;;;;;;;;23.29;47.88;101232.41;5059717;28;19938;-60
2022/07/20 03:42:50;;;;;;;;;;;;;;;23.30;47.91;101237.59;5054552;28;19927;-61
2022/07/20 03:45:15;;;;;;;;;;;;;;;23.29;48.14;101244.03;5061770;28;19920;-60
2022/07/20 03:47:41;;;;;;;;;;;;;;;23.30;48.79;101250.28;5068686;28;20336;-60
2022/07/20 03:50:06;;;;;;;;;;;;;;;23.28;48.45;101255.91;5060262;28;19969;-60
2022/07/20 03:52:31;;;;;;;;;;;;;;;23.28;49.22;101265.94;5061169;28;19924;-61
2022/07/20 03:54:56;;;;;;;;;;;;;;;23.27;49.29;101267.00;5063937;28;19921;-61
2022/07/20 03:57:21;;;;;;;;;;;;;;;23.31;51.43;101279.00;5066212;28;19924;-61
2022/07/20 03:59:49;;;;;;;;;;;;;;;23.18;50.65;101275.47;5069607;28;19917;-61
2022/07/20 04:02:14;;;;;;;;;;;;;;;23.10;50.55;101281.25;5055083;28;19970;-60
2022/07/20 04:04:41;;;;;;;;;;;;;;;23.11;51.26;101285.59;5064675;28;20378;-60
2022/07/20 04:07:07;;;;;;;;;;;;;;;23.08;50.69;101288.75;5058864;28;19978;-60
2022/07/20 04:09:50;;;;;;;;;;;;;;;23.11;51.43;101288.28;5070487;28;19928;-61
2022/07/20 04:12:16;;;;;;;;;;;;;;;23.07;50.77;101300.63;5057721;28;19997;-61
2022/07/20 04:14:42;;;;;;;;;;;;;;;23.20;52.72;101288.75;5071250;28;19928;-61
2022/07/20 04:17:07;;;;;;;;;;;;;;;23.07;51.61;101292.50;5066900;28;19920;-60
2022/07/20 04:19:34;;;;;;;;;;;;;;;23.07;51.71;101303.31;5057067;28;19920;-60
2022/07/20 04:21:59;;;;;;;;;;;;;;;23.07;51.79;101303.31;5068057;28;19921;-61
2022/07/20 04:24:24;;;;;;;;;;;;;;;23.05;51.44;101310.88;5056148;28;20606;-60
2022/07/20 04:26:50;;;;;;;;;;;;;;;23.10;51.45;101300.16;5050690;28;19916;-60
2022/07/20 04:29:15;;;;;;;;;;;;;;;23.10;51.72;101305.56;5067168;28;19999;-60
2022/07/20 04:31:40;;;;;;;;;;;;;;;23.10;51.79;101308.28;5060809;28;19929;-60
2022/07/20 04:34:05;;;;;;;;;;;;;;;23.14;51.78;101314.03;5054955;28;19928;-60
2022/07/20 04:36:30;;;;;;;;;;;;;;;23.12;52.11;101316.97;5059614;28;20298;-60
2022/07/20 04:38:56;;;;;;;;;;;;;;;23.12;52.03;101311.56;5068549;28;19928;-60
2022/07/20 04:41:21;;;;;;;;;;;;;;;23.15;52.14;101311.09;5066288;28;19924;-60
2022/07/20 04:43:46;;;;;;;;;;;;;;;23.16;52.08;101320.88;5068773;28;19925;-60
2022/07/20 04:46:11;;;;;;;;;;;;;;;23.24;53.09;101328.63;5066584;28;19979;-60
2022/07/20 04:48:36;;;;;;;;;;;;;;;23.18;52.28;101337.69;5056415;28;19999;-60
2022/07/20 04:51:01;;;;;;;;;;;;;;;23.18;52.05;101343.09;5063649;28;20389;-60
2022/07/20 04:53:28;;;;;;;;;;;;;;;23.20;53.47;101343.66;5057843;28;19921;-60
2022/07/20 04:55:53;;;;;;;;;;;;;;;23.20;51.79;101343.66;5066605;28;19920;-60
2022/07/20 04:58:18;;;;;;;;;;;;;;;23.21;52.06;101342.63;5055788;28;19921;-61
2022/07/20 05:00:43;;;;;;;;;;;;;;;23.22;51.93;101341.56;5060865;28;19924;-60
2022/07/20 05:03:08;;;;;;;;;;;;;;;23.21;51.62;101334.50;5057751;28;19935;-60
2022/07/20 05:05:34;;;;;;;;;;;;;;;23.25;52.29;101337.56;5061135;28;20016;-60
2022/07/20 05:07:59;;;;;;;;;;;;;;;23.22;52.66;101336.16;5061414;28;20359;-60
2022/07/20 05:10:24;;;;;;;;;;;;;;;23.20;52.66;101329.34;5060834;28;20707;-61
2022/07/20 05:12:49;;;;;;;;;;;;;;;23.13;52.61;101331.34;5056009;28;19928;-60
2022/07/20 05:15:14;;;;;;;;;;;;;;;23.12;52.25;101327.78;5054233;28;20425;-60
2022/07/20 05:17:40;;;;;;;;;;;;;;;23.14;51.99;101341.09;5067165;28;19944;-61
2022/07/20 05:20:05;;;;;;;;;;;;;;;23.17;52.85;101346.03;5063437;28;20031;-61
2022/07/20 05:22:30;;;;;;;;;;;;;;;23.16;52.43;101339.81;5054476;28;20418;-58
2022/07/20 05:24:56;;;;;;;;;;;;;;;23.25;53.05;101342.97;5064702;28;19924;-60
2022/07/20 05:27:21;;;;;;;;;;;;;;;23.20;52.67;101365.31;5058778;28;19947;-60
2022/07/20 05:29:46;;;;;;;;;;;;;;;23.21;52.77;101364.28;5056668;28;19928;-60
2022/07/20 05:32:11;;;;;;;;;;;;;;;23.24;52.44;101380.03;5063149;28;20294;-60
2022/07/20 05:34:37;;;;;;;;;;;;;;;23.22;52.60;101375.91;5057556;28;20386;-61
2022/07/20 05:37:02;;;;;;;;;;;;;;;23.23;52.24;101381.09;5060187;28;20539;-60
2022/07/20 05:39:27;;;;;;;;;;;;;;;23.27;52.71;101384.16;5058128;28;19973;-61
2022/07/20 05:41:54;;;;;;;;;;;;;;;23.27;52.27;101388.75;5058779;28;20295;-60
2022/07/20 05:44:19;;;;;;;;;;;;;;;23.31;52.69;101395.34;5058546;28;19921;-61
2022/07/20 05:46:44;;;;;;;;;;;;;;;23.35;52.45;101401.94;5064718;28;19928;-61
2022/07/20 05:49:10;;;;;;;;;;;;;;;23.42;52.41;101413.47;5056160;28;20268;-61
2022/07/20 05:51:35;;;;;;;;;;;;;;;23.52;52.56;101412.91;5057061;28;19921;-60
2022/07/20 05:54:00;;;;;;;;;;;;;;;23.49;52.60;101416.91;5057841;28;19947;-60
2022/07/20 05:56:26;;;;;;;;;;;;;;;23.56;52.71;101424.06;5060715;28;19943;-61
2022/07/20 05:58:51;;;;;;;;;;;;;;;23.70;53.07;101436.34;5058479;28;20382;-60
2022/07/20 06:01:16;;;;;;;;;;;;;;;23.67;52.86;101436.78;5059778;28;19920;-60
2022/07/20 06:03:41;;;;;;;;;;;;;;;23.69;53.04;101445.53;5059465;28;19921;-61
2022/07/20 06:06:06;;;;;;;;;;;;;;;23.59;52.93;101445.28;5054661;28;20335;-61
2022/07/20 06:08:32;;;;;;;;;;;;;;;23.58;52.96;101451.75;5062990;28;19928;-61
2022/07/20 06:10:57;;;;;;;;;;;;;;;23.55;53.14;101449.50;5058748;28;20477;-60
2022/07/20 06:13:28;;;;;;;;;;;;;;;23.55;53.30;101454.91;5059833;28;19993;-60
2022/07/20 06:15:53;;;;;;;;;;;;;;;23.55;53.18;101465.75;5059848;28;19927;-60
2022/07/20 06:18:18;;;;;;;;;;;;;;;23.48;53.23;101472.09;5055343;28;20298;-60
2022/07/20 06:20:44;;;;;;;;;;;;;;;23.53;53.29;101482.19;5057863;28;19921;-61
2022/07/20 06:23:09;;;;;;;;;;;;;;;23.43;53.34;101485.47;5056597;28;19934;-60
2022/07/20 06:25:34;;;;;;;;;;;;;;;23.44;54.25;101492.53;5058411;28;19920;-60
2022/07/20 06:28:00;;;;;;;;;;;;;;;23.39;53.19;101500.56;5056765;28;19928;-60
2022/07/20 06:30:26;;;;;;;;;;;;;;;23.43;53.39;101501.72;5058053;28;19974;-58
2022/07/20 06:32:51;;;;;;;;;;;;;;;23.47;53.31;101513.75;5059521;28;19929;-58
2022/07/20 06:35:16;;;;;;;;;;;;;;;23.49;53.21;101519.75;5059139;28;19920;-59
2022/07/20 06:37:41;;;;;;;;;;;;;;;23.55;53.27;101531.53;5056500;28;19932;-60
2022/07/20 06:40:07;;;;;;;;;;;;;;;23.54;53.41;101534.47;5057284;28;20046;-60
2022/07/20 06:42:32;;;;;;;;;;;;;;;23.69;53.08;101537.56;5060676;28;20597;-60
2022/07/20 06:44:58;;;;;;;;;;;;;;;23.69;53.05;101548.41;5057735;28;19928;-61
2022/07/20 06:47:23;;;;;;;;;;;;;;;23.81;53.16;101559.22;5056012;28;19921;-60
2022/07/20 06:49:48;;;;;;;;;;;;;;;23.58;52.92;101557.31;5053933;28;19924;-60
2022/07/20 06:52:13;;;;;;;;;;;;;;;23.52;54.01;101548.22;5061034;28;19935;-60
2022/07/20 06:54:39;;;;;;;;;;;;;;;23.42;53.27;101559.63;5057021;28;21572;-60
2022/07/20 06:57:04;;;;;;;;;;;;;;;23.42;53.28;101559.63;5059010;28;19957;-60
2022/07/20 06:59:29;;;;;;;;;;;;;;;23.46;53.63;101568.94;5055289;28;19957;-61
2022/07/20 07:01:54;;;;;;;;;;;;;;;23.43;53.90;101582.91;5057263;28;19924;-60
2022/07/20 07:04:19;;;;;;;;;;;;;;;23.39;53.81;101573.63;5053085;28;19975;-61
2022/07/20 07:06:45;;;;;;;;;;;;;;;23.42;54.04;101559.63;5059308;28;20355;-61
2022/07/20 07:09:10;;;;;;;;;;;;;;;23.46;53.81;101570.81;5055187;28;19921;-60
2022/07/20 07:11:36;;;;;;;;;;;;;;;23.55;54.07;101557.75;5054242;28;19928;-60
2022/07/20 07:14:02;;;;;;;;;;;;;;;23.49;53.56;101549.50;5058678;28;19927;-60
2022/07/20 07:16:27;;;;;;;;;;;;;;;23.60;53.30;101544.38;5054501;28;19921;-60
2022/07/20 07:18:53;;;;;;;;;;;;;;;23.62;53.25;101553.91;5060672;28;19921;-60
2022/07/20 07:21:18;;;;;;;;;;;;;;;23.69;53.28;101561.09;5061780;28;19920;-60
2022/07/20 07:23:45;;;;;;;;;;;;;;;23.93;53.24;101570.09;5063090;28;20217;-61
2022/07/20 07:26:10;;;;;;;;;;;;;;;24.08;52.75;101564.22;5062542;28;19928;-61
2022/07/20 07:28:36;;;;;;;;;;;;;;;24.20;52.88;101580.50;5061102;28;19924;-60
2022/07/20 07:31:01;;;;;;;;;;;;;;;24.33;52.64;101589.44;5061684;28;20078;-60
2022/07/20 07:33:27;;;;;;;;;;;;;;;24.25;52.94;101593.31;5061751;28;20563;-60
2022/07/20 07:35:53;;;;;;;;;;;;;;;24.35;52.42;101598.16;5061205;28;19936;-61
2022/07/20 07:38:18;;;;;;;;;;;;;;;24.26;52.60;101606.66;5063882;28;19924;-61
2022/07/20 07:40:43;;;;;;;;;;;;;;;24.33;52.60;101605.72;5060123;28;20318;-60
2022/07/20 07:43:11;;;;;;;;;;;;;;;24.45;52.83;101611.94;5060271;28;19920;-60
2022/07/20 07:45:37;;;;;;;;;;;;;;;24.53;52.89;101614.28;5061270;28;19927;-60
2022/07/20 07:48:02;;;;;;;;;;;;;;;24.67;52.80;101628.44;5060188;28;19929;-61
2022/07/20 07:50:27;;;;;;;;;;;;;;;24.69;52.79;101628.19;5060463;28;19935;-60
2022/07/20 07:52:52;;;;;;;;;;;;;;;24.77;52.58;101630.53;5062711;28;19920;-60
2022/07/20 07:55:18;;;;;;;;;;;;;;;24.88;52.07;101633.50;5060067;28;19920;-61
2022/07/20 07:57:43;;;;;;;;;;;;;;;25.01;52.56;101627.81;5059022;28;19920;-61
2022/07/20 08:00:08;;;;;;;;;;;;;;;25.13;50.69;101630.50;5059790;28;19971;-61
2022/07/20 08:02:34;;;;;;;;;;;;;;;25.17;50.45;101619.97;5060043;28;19928;-61
2022/07/20 08:05:01;;;;;;;;;;;;;;;25.17;50.58;101609.13;5057899;28;19921;-61
2022/07/20 08:07:27;;;;;;;;;;;;;;;25.25;50.35;101597.88;5061244;28;19921;-59
2022/07/20 08:09:52;;;;;;;;;;;;;;;25.41;50.30;101595.47;5057298;28;20383;-61
2022/07/20 08:12:17;;;;;;;;;;;;;;;25.34;50.30;101593.72;5060100;28;19920;-61
2022/07/20 08:14:42;;;;;;;;;;;;;;;25.50;50.20;101585.84;5057434;28;19925;-61
2022/07/20 08:17:08;;;;;;;;;;;;;;;25.49;49.73;101584.19;5060888;28;19921;-61
2022/07/20 08:19:33;;;;;;;;;;;;;;;25.59;49.36;101589.84;5058521;28;20387;-62
2022/07/20 08:21:59;;;;;;;;;;;;;;;25.76;48.71;101586.31;5062459;28;20471;-61
2022/07/20 08:24:24;;;;;;;;;;;;;;;25.60;49.14;101591.47;5062680;28;19999;-61
2022/07/20 08:26:50;;;;;;;;;;;;;;;25.69;48.85;101588.38;5065802;28;20475;-62
2022/07/20 08:29:15;;;;;;;;;;;;;;;25.56;48.77;101594.94;5058096;28;19924;-62
2022/07/20 08:31:40;;;;;;;;;;;;;;;25.45;48.97;101600.16;5058784;28;20787;-61
2022/07/20 08:34:05;;;;;;;;;;;;;;;25.45;49.00;101608.28;5066954;28;19974;-61
2022/07/20 08:36:30;;;;;;;;;;;;;;;25.46;49.04;101617.28;5063031;28;19920;-61
2022/07/20 08:38:56;;;;;;;;;;;;;;;25.62;48.63;101629.25;5057397;28;20858;-61
2022/07/20 08:41:21;;;;;;;;;;;;;;;25.61;48.80;101625.72;5063201;28;19924;-61
2022/07/20 08:43:46;;;;;;;;;;;;;;;25.70;49.11;101638.91;5061109;28;20340;-61
2022/07/20 08:46:12;;;;;;;;;;;;;;;25.69;48.93;101642.72;5060339;28;19986;-62
2022/07/20 08:48:40;;;;;;;;;;;;;;;25.76;48.56;101616.22;5061363;28;20309;-61
2022/07/20 08:51:05;;;;;;;;;;;;;;;25.74;49.58;101612.88;5059083;28;20404;-61
2022/07/20 08:53:30;;;;;;;;;;;;;;;25.87;48.68;101618.03;5058816;28;19920;-62
2022/07/20 08:55:56;;;;;;;;;;;;;;;25.91;49.04;101616.44;5054508;28;19956;-62
2022/07/20 08:58:21;;;;;;;;;;;;;;;25.88;48.54;101608.81;5056666;28;19935;-61
2022/07/20 09:00:47;;;;;;;;;;;;;;;25.77;48.71;101596.13;5059179;28;19927;-61
2022/07/20 09:03:13;;;;;;;;;;;;;;;25.76;49.00;101578.19;5054018;28;20018;-64
2022/07/20 09:05:39;;;;;;;;;;;;;;;25.71;49.12;101573.47;5055158;28;19920;-62
2022/07/20 09:08:05;;;;;;;;;;;;;;;25.60;48.75;101586.06;5064679;28;19927;-62
2022/07/20 09:10:31;;;;;;;;;;;;;;;25.56;49.15;101617.47;5059502;28;19928;-62
2022/07/20 09:13:01;;;;;;;;;;;;;;;25.61;49.01;101611.34;5059104;28;19921;-62
2022/07/20 09:15:40;;;;;;;;;;;;;;;25.65;49.26;101626.88;5058408;28;19921;-61
2022/07/20 09:18:40;;;;;;;;;;;;;;;25.57;49.53;101635.44;5054109;28;20275;-62
2022/07/20 09:21:07;;;;;;;;;;;;;;;25.72;48.99;101686.50;4968991;28;19995;-62
2022/07/20 09:23:33;;;;;;;;;;;;;;;25.77;48.79;101699.34;5049614;28;20023;-62
2022/07/20 09:26:00;;;;;;;;;;;;;;;25.81;48.82;101702.38;5078691;28;19951;-62
2022/07/20 09:28:37;;;;;;;;;;;;;;;25.77;48.95;101715.63;5062097;28;19925;-59
2022/07/20 09:31:08;;;;;;;;;;;;;;;25.81;48.82;101711.38;5057036;28;19978;-59
2022/07/20 09:33:33;;;;;;;;;;;;;;;25.90;48.70;101698.22;5063392;28;19929;-61
2022/07/20 09:36:01;;;;;;;;;;;;;;;26.05;48.55;101678.63;5070180;28;19955;-60
2022/07/20 09:38:33;;;;;;;;;;;;;;;26.18;48.46;101677.47;5059974;28;19927;-59
2022/07/20 09:40:58;;;;;;;;;;;;;;;26.36;48.02;101679.16;5069789;28;19954;-60
2022/07/20 09:43:25;;;;;;;;;;;;;;;26.49;48.04;101682.63;5062924;28;20322;-61
2022/07/20 09:45:50;;;;;;;;;;;;;;;26.57;47.67;101679.47;5061459;28;19943;-60
2022/07/20 09:48:20;;;;;;;;;;;;;;;26.67;47.31;101671.44;5059506;28;19920;-62
2022/07/20 09:50:45;;;;;;;;;;;;;;;26.78;47.08;101672.41;5062281;28;19924;-62
2022/07/20 09:53:11;;;;;;;;;;;;;;;26.65;47.52;101665.44;5067618;28;20431;-61
2022/07/20 09:55:37;;;;;;;;;;;;;;;26.83;47.09;101649.88;5065381;28;19927;-61
2022/07/20 09:58:02;;;;;;;;;;;;;;;27.00;47.27;101644.44;5063926;28;19977;-62
2022/07/20 10:00:28;;;;;;;;;;;;;;;27.19;47.17;101652.28;5059018;28;20344;-62
2022/07/20 10:05:30;;;;;;;;;;;;;;;27.52;45.89;101667.59;5347692;22;19929;-60
2022/07/20 10:07:56;;;;;;;;;;;;;;;27.37;45.34;101673.72;5046040;28;19929;-59
2022/07/20 10:10:21;;;;;;;;;;;;;;;27.28;45.88;101680.69;5050680;28;20005;-60
2022/07/20 10:12:47;;;;;;;;;;;;;;;27.17;45.85;101682.47;5049681;28;19924;-59
2022/07/20 10:15:16;;;;;;;;;;;;;;;27.26;45.38;101697.28;5046145;28;19920;-59
2022/07/20 10:17:42;;;;;;;;;;;;;;;27.29;44.34;101685.06;5049905;28;19993;-59
2022/07/20 10:20:27;;;;;;;;;;;;;;;27.28;44.80;101688.84;5043409;28;20402;-59
2022/07/20 10:23:15;;;;;;;;;;;;;;;27.25;44.98;101679.31;5043309;28;19921;-59
2022/07/20 10:25:45;;;;;;;;;;;;;;;27.18;44.80;101667.78;5050917;28;19927;-59
2022/07/20 10:28:33;;;;;;;;;;;;;;;27.15;45.22;101659.28;5046500;28;20379;-59
2022/07/20 10:33:36;;;;;;;;;;;;;;;27.08;45.00;101667.66;5418254;22;20420;-60
2022/07/20 10:44:14;;;;;;;;;;;;;;;27.25;45.83;101660.25;5083617;28;19927;-58
2022/07/20 10:46:40;;;;;;;;;;;;;;;27.32;44.76;101657.31;5086841;28;19945;-58
2022/07/20 10:49:05;;;;;;;;;;;;;;;27.38;44.49;101655.47;5082941;28;19917;-58
2022/07/20 10:51:30;;;;;;;;;;;;;;;27.51;44.79;101659.69;5091949;28;19928;-58
2022/07/20 10:53:55;;;;;;;;;;;;;;;27.61;44.71;101653.53;5092797;28;20385;-58
2022/07/20 10:56:30;;;;;;;;;;;;;;;27.78;44.33;101654.25;5089742;28;19943;-58
2022/07/20 10:59:00;;;;;;;;;;;;;;;27.85;44.30;101664.13;5091446;28;19995;-58
2022/07/20 11:01:25;;;;;;;;;;;;;;;27.93;44.07;101672.66;5087627;28;20019;-59
2022/07/20 11:03:50;;;;;;;;;;;;;;;28.12;43.99;101676.91;5103690;28;19995;-58
2022/07/20 11:06:23;;;;;;;;;;;;;;;28.22;44.16;101679.72;5086138;28;19947;-60
2022/07/20 11:08:50;;;;;;;;;;;;;;;28.39;43.32;101678.75;5092263;28;20405;-62
2022/07/20 11:11:17;;;;;;;;;;;;;;;28.48;42.30;101688.09;5089317;28;19952;-61
2022/07/20 11:13:42;;;;;;;;;;;;;;;28.29;42.84;101672.16;5086716;28;19916;-62
2022/07/20 11:16:07;;;;;;;;;;;;;;;28.46;42.70;101669.25;5090289;28;20002;-61
2022/07/20 11:18:33;;;;;;;;;;;;;;;28.50;42.61;101660.56;5092562;28;19989;-60
2022/07/20 11:20:58;;;;;;;;;;;;;;;28.56;42.84;101660.31;5087054;28;19923;-59
2022/07/20 11:23:25;;;;;;;;;;;;;;;28.66;42.83;101661.47;5078215;28;20409;-59
2022/07/20 11:25:55;;;;;;;;;;;;;;;28.77;42.51;101657.72;5089338;28;20007;-59
2022/07/20 11:28:25;;;;;;;;;;;;;;;29.01;42.68;101665.50;5088479;28;19916;-60
2022/07/20 11:30:51;;;;;;;;;;;;;;;29.02;42.41;101664.41;5088986;28;20389;-59
2022/07/20 11:33:23;;;;;;;;;;;;;;;29.12;42.25;101647.22;5089514;28;19920;-60
2022/07/20 11:35:49;;;;;;;;;;;;;;;29.26;41.48;101656.53;5091096;28;19920;-60
2022/07/20 11:38:16;;;;;;;;;;;;;;;29.24;41.49;101657.91;5090906;28;19927;-60
2022/07/20 11:40:41;;;;;;;;;;;;;;;29.24;42.05;101649.72;5081883;28;19927;-60
2022/07/20 11:43:10;;;;;;;;;;;;;;;29.34;40.46;101654.38;5064258;28;19924;-62
2022/07/20 11:45:36;;;;;;;;;;;;;;;29.29;41.27;101649.72;5065883;28;20334;-62
2022/07/20 11:48:14;;;;;;;;;;;;;;;29.37;40.83;101660.13;5060587;28;19920;-61
2022/07/20 11:50:39;;;;;;;;;;;;;;;29.39;40.42;101652.47;5060757;28;19920;-61
2022/07/20 11:53:04;;;;;;;;;;;;;;;29.44;40.86;101656.31;5064754;28;20238;-61
2022/07/20 11:55:33;;;;;;;;;;;;;;;29.45;40.51;101658.75;5065874;28;19966;-63
2022/07/20 11:57:58;;;;;;;;;;;;;;;29.47;40.70;101666.69;5062681;28;19924;-62
2022/07/20 12:00:26;;;;;;;;;;;;;;;29.57;39.99;101652.25;5063752;28;19928;-61
2022/07/20 12:02:51;;;;;;;;;;;;;;;29.72;39.06;101671.41;5065413;28;19931;-61
2022/07/20 12:05:16;;;;;;;;;;;;;;;29.78;38.52;101678.53;5069848;28;19928;-62
2022/07/20 12:10:25;;;;;;;;;;;;;;;29.83;37.55;101685.09;5067490;28;20389;-62
2022/07/20 12:13:00;;;;;;;;;;;;;;;29.56;38.67;101689.72;5066440;28;19928;-62
2022/07/20 12:15:26;;;;;;;;;;;;;;;29.36;38.59;101685.78;5064221;28;19921;-61
2022/07/20 12:17:52;;;;;;;;;;;;;;;29.26;38.62;101680.31;5069494;28;20019;-61
2022/07/20 12:20:17;;;;;;;;;;;;;;;29.13;38.90;101687.91;5071110;28;19920;-61
2022/07/20 12:22:49;;;;;;;;;;;;;;;29.36;38.17;101683.06;5063940;28;20593;-61
2022/07/20 12:25:14;;;;;;;;;;;;;;;28.76;39.40;101675.16;5063748;28;19924;-62
2022/07/20 12:27:39;;;;;;;;;;;;;;;28.63;39.36;101665.53;5068240;28;20351;-61
2022/07/20 12:30:23;;;;;;;;;;;;;;;28.58;39.32;101663.63;5071489;28;20401;-61
2022/07/20 12:33:01;;;;;;;;;;;;;;;28.54;39.37;101689.78;5061931;28;19920;-61
2022/07/20 12:35:26;;;;;;;;;;;;;;;28.46;39.78;101685.63;5069338;28;20003;-61
2022/07/20 12:37:53;;;;;;;;;;;;;;;28.58;39.86;101688.16;5067790;28;20063;-60
2022/07/20 12:40:33;;;;;;;;;;;;;;;28.71;40.29;101686.88;5064970;28;20013;-61
2022/07/20 12:42:59;;;;;;;;;;;;;;;28.64;40.45;101680.00;5064922;28;19928;-60
2022/07/20 12:45:24;;;;;;;;;;;;;;;28.70;40.86;101678.94;5068668;28;19920;-61
2022/07/20 12:47:49;;;;;;;;;;;;;;;28.62;41.40;101683.00;5064065;28;19967;-61
2022/07/20 12:50:14;;;;;;;;;;;;;;;28.67;42.03;101690.41;5068323;28;19967;-61
2022/07/20 12:52:39;;;;;;;;;;;;;;;28.70;42.36;101690.69;5065733;28;19924;-60